Time;durP1;ratioP1;P1;durP2;ratioP2;P2;SDS_P1;SDS_P2;PMS_P1;PMS_P2;Temp;Humidity;BMP_temperature;BMP_pressure;BME280_temperature;BME280_humidity;BME280_pressure;Samples;Min_cycle;Max_cycle;Signal;HPM_P1;HPM_P2
2023/01/16 00:01:55;;;;;;;7.55;1.50;;;4.20;99.90;;;;;;6148347;23;20017;-78
2023/01/16 00:04:21;;;;;;;4.20;1.40;;;4.20;99.90;;;;;;6146463;23;20442;-78
2023/01/16 00:06:47;;;;;;;8.93;2.35;;;4.20;99.90;;;;;;6123420;23;20028;-78
2023/01/16 00:09:12;;;;;;;4.40;1.33;;;4.10;99.90;;;;;;6149357;23;20013;-78
2023/01/16 00:11:38;;;;;;;8.50;1.30;;;4.00;99.90;;;;;;6148994;23;20119;-78
2023/01/16 00:14:04;;;;;;;8.10;1.60;;;4.00;99.90;;;;;;6149378;23;20013;-78
2023/01/16 00:16:29;;;;;;;8.15;1.30;;;4.00;99.90;;;;;;6148381;23;20021;-78
2023/01/16 00:18:55;;;;;;;4.75;1.80;;;4.00;99.90;;;;;;6148319;23;20024;-78
2023/01/16 00:21:25;;;;;;;5.47;1.95;;;4.00;99.90;;;;;;6149417;23;20630;-78
2023/01/16 00:23:53;;;;;;;4.93;1.58;;;4.00;99.90;;;;;;6148875;23;20018;-78
2023/01/16 00:26:18;;;;;;;4.47;1.50;;;4.00;99.90;;;;;;6147512;23;20048;-78
2023/01/16 00:28:44;;;;;;;7.40;1.58;;;3.90;99.90;;;;;;6148542;23;20052;-78
2023/01/16 00:31:09;;;;;;;6.78;1.15;;;3.90;99.90;;;;;;6148087;23;20013;-78
2023/01/16 00:33:35;;;;;;;4.82;1.27;;;3.90;99.90;;;;;;6148821;23;20021;-78
2023/01/16 00:36:01;;;;;;;6.50;1.63;;;3.90;99.90;;;;;;6123269;23;20024;-78
2023/01/16 00:38:27;;;;;;;4.47;1.27;;;3.90;99.90;;;;;;6124860;23;20458;-78
2023/01/16 00:40:52;;;;;;;3.95;1.27;;;3.90;99.90;;;;;;6149817;23;20017;-78
2023/01/16 00:43:18;;;;;;;6.05;1.30;;;3.90;99.90;;;;;;6149681;23;20018;-78
2023/01/16 00:45:44;;;;;;;7.50;1.95;;;3.90;99.90;;;;;;6123637;23;20437;-78
2023/01/16 00:48:09;;;;;;;4.90;1.73;;;3.90;99.90;;;;;;6148632;23;20014;-78
2023/01/16 00:50:35;;;;;;;6.38;1.75;;;3.90;99.90;;;;;;6149067;23;20469;-78
2023/01/16 00:53:01;;;;;;;3.45;1.20;;;3.90;99.90;;;;;;6148868;23;20021;-78
2023/01/16 00:55:26;;;;;;;6.65;1.55;;;4.00;99.90;;;;;;6147923;23;20013;-78
2023/01/16 00:57:52;;;;;;;7.15;1.55;;;4.00;99.90;;;;;;6124278;23;20476;-78
2023/01/16 01:00:21;;;;;;;7.47;1.50;;;4.10;99.90;;;;;;6148423;23;20016;-78
2023/01/16 01:02:48;;;;;;;8.25;1.70;;;4.10;99.90;;;;;;6124883;23;20018;-78
2023/01/16 01:05:13;;;;;;;5.10;1.70;;;4.10;99.90;;;;;;6147964;23;20026;-78
2023/01/16 01:07:39;;;;;;;11.05;1.63;;;4.10;99.90;;;;;;6149850;23;20469;-78
2023/01/16 01:10:05;;;;;;;5.95;1.88;;;4.20;99.90;;;;;;6150418;23;20112;-78
2023/01/16 01:12:31;;;;;;;6.45;1.48;;;4.20;99.90;;;;;;6149222;23;20024;-78
2023/01/16 01:14:56;;;;;;;5.80;1.67;;;4.20;99.90;;;;;;6124419;23;20025;-78
2023/01/16 01:17:22;;;;;;;6.38;1.50;;;4.20;99.90;;;;;;6148675;23;20022;-78
2023/01/16 01:19:47;;;;;;;7.15;1.60;;;4.20;99.90;;;;;;6124289;23;20164;-78
2023/01/16 01:22:15;;;;;;;7.38;1.63;;;4.20;99.90;;;;;;6150005;23;20347;-78
2023/01/16 01:24:41;;;;;;;8.57;1.58;;;4.10;99.90;;;;;;6147771;23;20045;-78
2023/01/16 01:27:06;;;;;;;6.55;2.15;;;4.20;99.90;;;;;;6148982;23;20067;-78
2023/01/16 01:29:32;;;;;;;12.00;3.00;;;4.10;99.90;;;;;;6147856;23;20067;-78
2023/01/16 01:31:57;;;;;;;5.75;2.28;;;4.10;99.90;;;;;;6123295;23;20022;-78
2023/01/16 01:34:23;;;;;;;7.93;1.83;;;4.10;99.90;;;;;;6148317;23;20021;-78
2023/01/16 01:36:48;;;;;;;11.98;1.67;;;4.50;99.90;;;;;;6147466;23;20028;-78
2023/01/16 01:39:14;;;;;;;5.65;1.70;;;4.10;99.90;;;;;;6147479;23;20032;-78
2023/01/16 01:41:40;;;;;;;5.85;1.60;;;4.10;99.90;;;;;;6147478;23;20013;-78
2023/01/16 01:44:44;;;;;;;6.80;2.33;;;4.10;99.90;;;;;;6148644;23;20025;-78
2023/01/16 01:47:11;;;;;;;8.65;1.45;;;4.10;99.90;;;;;;6148170;23;20316;-79
2023/01/16 01:49:37;;;;;;;6.40;1.60;;;4.20;99.90;;;;;;6123152;23;20018;-78
2023/01/16 01:52:03;;;;;;;5.28;1.38;;;4.10;99.90;;;;;;6123373;23;20010;-78
2023/01/16 01:54:35;;;;;;;6.82;1.33;;;4.20;99.90;;;;;;6148993;23;20071;-78
2023/01/16 01:57:08;;;;;;;10.52;1.60;;;4.20;99.90;;;;;;6148734;23;20049;-78
2023/01/16 01:59:40;;;;;;;5.97;1.50;;;4.20;99.90;;;;;;6149262;23;20018;-78
2023/01/16 02:02:10;;;;;;;5.78;1.20;;;4.10;99.90;;;;;;6147566;23;20084;-78
2023/01/16 02:04:40;;;;;;;11.55;1.70;;;4.10;99.90;;;;;;6149145;23;20084;-78
2023/01/16 02:07:08;;;;;;;10.00;2.15;;;4.10;99.90;;;;;;6147820;23;20387;-78
2023/01/16 02:09:34;;;;;;;10.80;1.80;;;4.10;99.90;;;;;;6148738;23;20016;-78
2023/01/16 02:12:08;;;;;;;6.32;1.17;;;4.10;99.90;;;;;;6148804;23;20088;-78
2023/01/16 02:14:37;;;;;;;7.03;1.55;;;4.10;99.90;;;;;;6149019;23;20097;-78
2023/01/16 02:20:09;;;;;;;8.90;1.92;;;4.00;99.90;;;;;;6033834;23;20122;-78
2023/01/16 02:22:43;;;;;;;10.80;1.67;;;4.00;99.90;;;;;;6122400;23;20025;-78
2023/01/16 02:25:27;;;;;;;5.63;1.35;;;4.00;99.90;;;;;;6122480;23;20316;-78
2023/01/16 02:28:06;;;;;;;12.48;1.50;;;4.00;99.90;;;;;;6149298;23;20477;-78
2023/01/16 02:30:51;;;;;;;10.63;1.50;;;4.00;99.90;;;;;;6147446;23;20097;-78
2023/01/16 02:33:41;;;;;;;8.63;1.80;;;4.00;99.90;;;;;;6146929;23;20096;-78
2023/01/16 02:36:31;;;;;;;9.43;1.35;;;4.00;99.90;;;;;;6147498;23;20069;-78
2023/01/16 02:39:14;;;;;;;10.82;1.40;;;4.00;99.90;;;;;;6148882;23;20024;-78
2023/01/16 02:41:58;;;;;;;6.00;1.45;;;3.90;99.90;;;;;;6148025;23;20025;-78
2023/01/16 02:44:33;;;;;;;6.28;1.25;;;3.90;99.90;;;;;;6148055;23;20021;-78
2023/01/16 02:47:07;;;;;;;7.25;1.38;;;4.00;99.90;;;;;;6146849;23;20469;-78
2023/01/16 02:49:44;;;;;;;4.97;1.08;;;4.00;99.90;;;;;;6147983;23;20088;-78
2023/01/16 02:52:21;;;;;;;12.77;2.33;;;3.90;99.90;;;;;;6147140;23;20024;-78
2023/01/16 02:54:58;;;;;;;6.47;1.40;;;4.00;99.90;;;;;;6147187;23;20024;-78
2023/01/16 02:57:29;;;;;;;10.80;2.28;;;4.00;99.90;;;;;;6147657;23;20017;-78
2023/01/16 02:59:55;;;;;;;11.70;1.70;;;4.10;99.90;;;;;;6148321;23;20014;-78
2023/01/16 03:02:20;;;;;;;8.15;1.80;;;4.10;99.90;;;;;;6148988;23;20017;-78
2023/01/16 03:04:51;;;;;;;3.45;1.77;;;4.10;99.90;;;;;;6123354;23;20065;-78
2023/01/16 03:07:48;;;;;;;8.10;2.22;;;4.10;99.90;;;;;;6148491;23;20164;-78
2023/01/16 03:10:21;;;;;;;6.80;1.55;;;4.10;99.90;;;;;;6148692;23;20009;-78
2023/01/16 03:12:54;;;;;;;8.00;1.75;;;4.10;99.90;;;;;;6149902;23;20451;-79
2023/01/16 03:15:31;;;;;;;4.00;1.70;;;4.10;99.90;;;;;;6123253;23;20067;-78
2023/01/16 03:18:20;;;;;;;7.00;1.88;;;4.20;99.90;;;;;;6149341;23;20022;-78
2023/01/16 03:21:14;;;;;;;10.38;1.95;;;4.20;99.90;;;;;;6147772;23;20025;-78
2023/01/16 03:23:54;;;;;;;5.85;2.08;;;4.20;99.90;;;;;;6149526;23;20411;-78
2023/01/16 03:26:28;;;;;;;5.88;1.55;;;4.20;99.90;;;;;;6148007;23;20447;-79
2023/01/16 03:29:21;;;;;;;11.82;2.38;;;4.30;99.90;;;;;;6147708;23;20013;-78
2023/01/16 03:32:01;;;;;;;6.63;2.40;;;4.30;99.90;;;;;;6147681;23;20014;-78
2023/01/16 03:34:30;;;;;;;5.68;2.25;;;4.30;99.90;;;;;;6121179;23;20017;-78
2023/01/16 03:37:18;;;;;;;5.95;2.60;;;4.40;99.90;;;;;;6122229;23;20017;-78
2023/01/16 03:39:52;;;;;;;6.80;2.60;;;4.40;99.90;;;;;;6120229;23;20068;-78
2023/01/16 03:42:57;;;;;;;9.07;3.83;;;4.40;99.90;;;;;;6148112;23;20013;-78
2023/01/16 03:45:38;;;;;;;4.60;2.67;;;4.50;99.90;;;;;;6092584;23;20103;-78
2023/01/16 03:48:18;;;;;;;7.20;3.47;;;4.50;99.90;;;;;;6148765;23;20016;-78
2023/01/16 03:50:56;;;;;;;7.50;3.42;;;4.40;99.90;;;;;;6124039;23;20017;-78
2023/01/16 03:53:25;;;;;;;5.03;3.08;;;4.50;99.90;;;;;;6147225;23;20014;-78
2023/01/16 03:55:57;;;;;;;7.78;4.38;;;4.50;99.90;;;;;;6148399;23;20014;-78
2023/01/16 03:58:34;;;;;;;6.88;3.65;;;4.50;99.90;;;;;;6148682;23;20053;-78
2023/01/16 04:01:09;;;;;;;8.43;3.75;;;4.50;99.90;;;;;;6147877;23;20009;-78
2023/01/16 04:03:43;;;;;;;6.03;3.60;;;4.50;99.90;;;;;;6149412;23;20026;-78
2023/01/16 04:06:19;;;;;;;6.05;3.65;;;4.50;99.90;;;;;;6148892;23;20033;-79
2023/01/16 04:08:46;;;;;;;7.15;3.78;;;4.50;99.90;;;;;;6145932;23;20052;-78
2023/01/16 04:11:14;;;;;;;7.88;4.05;;;4.50;99.90;;;;;;6147600;23;20032;-78
2023/01/16 04:13:43;;;;;;;7.50;4.28;;;4.50;99.90;;;;;;6149110;23;20021;-78
2023/01/16 04:16:14;;;;;;;7.53;4.63;;;4.60;99.90;;;;;;6148296;23;20025;-78
2023/01/16 04:18:41;;;;;;;7.97;4.50;;;4.60;99.90;;;;;;6149068;23;20681;-78
2023/01/16 04:21:07;;;;;;;12.73;5.38;;;4.60;99.90;;;;;;6149436;23;20032;-78
2023/01/16 04:23:34;;;;;;;8.85;5.50;;;4.60;99.90;;;;;;6149420;23;20022;-78
2023/01/16 04:26:00;;;;;;;6.20;5.40;;;4.60;99.90;;;;;;6149008;23;20045;-78
2023/01/16 04:28:25;;;;;;;8.93;5.68;;;4.60;99.90;;;;;;6123676;23;20017;-78
2023/01/16 04:30:51;;;;;;;7.00;5.35;;;4.60;99.90;;;;;;6148702;23;20013;-78
2023/01/16 04:33:16;;;;;;;12.00;6.70;;;4.60;99.90;;;;;;6149100;23;20501;-78
2023/01/16 04:35:42;;;;;;;8.60;6.45;;;4.70;99.90;;;;;;6147286;23;20630;-78
2023/01/16 04:38:07;;;;;;;10.68;6.90;;;4.70;99.90;;;;;;6150239;23;20121;-78
2023/01/16 04:40:33;;;;;;;10.90;7.28;;;4.70;99.90;;;;;;6147822;23;20024;-78
2023/01/16 04:42:59;;;;;;;10.05;8.13;;;4.70;99.90;;;;;;6148802;23;20442;-78
2023/01/16 04:45:24;;;;;;;13.90;9.15;;;4.70;99.90;;;;;;6148385;23;20032;-78
2023/01/16 04:47:51;;;;;;;10.35;8.88;;;4.60;99.90;;;;;;6149285;23;20048;-79
2023/01/16 04:50:18;;;;;;;16.70;10.20;;;4.60;99.90;;;;;;6146589;23;20036;-78
2023/01/16 04:52:43;;;;;;;12.30;8.95;;;4.60;99.90;;;;;;6148996;23;20485;-79
2023/01/16 04:55:10;;;;;;;9.77;8.80;;;4.60;99.90;;;;;;6122725;23;20013;-78
2023/01/16 04:57:36;;;;;;;10.93;8.52;;;4.60;99.90;;;;;;6120209;23;20048;-78
2023/01/16 05:00:03;;;;;;;15.35;9.57;;;4.60;99.90;;;;;;6145269;23;20312;-78
2023/01/16 05:02:29;;;;;;;13.20;9.25;;;4.60;99.90;;;;;;6145330;23;20024;-78
2023/01/16 05:04:55;;;;;;;18.70;10.68;;;4.50;99.90;;;;;;6144321;23;20021;-78
2023/01/16 05:07:20;;;;;;;13.95;10.23;;;4.50;99.90;;;;;;6142592;23;20014;-78
2023/01/16 05:09:46;;;;;;;11.10;9.13;;;4.50;99.90;;;;;;6143678;23;20096;-79
2023/01/16 05:12:11;;;;;;;20.17;10.95;;;4.50;99.90;;;;;;6142621;23;20014;-78
2023/01/16 05:14:37;;;;;;;16.02;9.88;;;4.50;99.90;;;;;;6144579;23;20461;-78
2023/01/16 05:17:02;;;;;;;12.25;10.27;;;4.10;99.90;;;;;;6143081;23;20018;-79
2023/01/16 05:19:28;;;;;;;11.20;10.10;;;4.50;99.90;;;;;;6148630;23;20021;-79
2023/01/16 05:21:53;;;;;;;13.57;11.25;;;4.50;99.90;;;;;;6121651;23;20100;-79
2023/01/16 05:24:19;;;;;;;12.68;9.63;;;4.40;99.90;;;;;;6121012;23;20080;-79
2023/01/16 05:26:44;;;;;;;13.50;10.30;;;4.40;99.90;;;;;;6147356;23;20017;-78
2023/01/16 05:29:10;;;;;;;14.50;10.38;;;4.30;99.90;;;;;;6147051;23;20025;-78
2023/01/16 05:31:35;;;;;;;13.15;9.13;;;4.30;99.90;;;;;;6148186;23;20017;-78
2023/01/16 05:34:01;;;;;;;10.75;9.45;;;4.20;99.90;;;;;;6147365;23;20052;-78
2023/01/16 05:36:27;;;;;;;10.95;9.18;;;4.20;99.90;;;;;;6147594;23;20017;-79
2023/01/16 05:38:54;;;;;;;14.77;10.48;;;4.10;99.90;;;;;;6148107;23;20025;-79
2023/01/16 05:41:19;;;;;;;17.30;10.20;;;4.10;99.90;;;;;;6147201;23;20092;-79
2023/01/16 05:43:45;;;;;;;13.90;9.35;;;4.00;99.90;;;;;;6148911;23;20049;-79
2023/01/16 05:46:10;;;;;;;11.38;9.07;;;4.00;99.90;;;;;;6150347;23;20010;-80
2023/01/16 05:48:37;;;;;;;17.05;9.48;;;4.00;99.90;;;;;;6148351;23;20065;-78
2023/01/16 05:51:03;;;;;;;12.68;9.10;;;4.00;99.90;;;;;;6146611;23;20639;-79
2023/01/16 05:53:30;;;;;;;14.45;9.05;;;4.00;99.90;;;;;;6147784;23;20013;-83
2023/01/16 05:55:56;;;;;;;13.75;8.15;;;4.10;99.90;;;;;;6145256;23;20024;-78
2023/01/16 05:58:22;;;;;;;16.60;8.45;;;4.00;99.90;;;;;;6147810;23;20069;-79
2023/01/16 06:00:48;;;;;;;12.73;9.18;;;4.00;99.90;;;;;;6126763;23;20044;-80
2023/01/16 06:03:15;;;;;;;12.73;8.27;;;4.10;99.90;;;;;;6150627;23;20021;-80
2023/01/16 06:05:41;;;;;;;17.40;8.75;;;4.10;99.90;;;;;;6123834;23;20016;-78
2023/01/16 06:08:07;;;;;;;16.55;7.72;;;4.10;99.90;;;;;;6149655;23;20070;-81
2023/01/16 06:10:33;;;;;;;13.18;7.40;;;4.10;99.90;;;;;;6150585;23;20009;-81
2023/01/16 06:13:00;;;;;;;9.48;6.55;;;4.10;99.90;;;;;;6149924;23;20013;-78
2023/01/16 06:15:26;;;;;;;13.77;6.00;;;4.10;99.90;;;;;;6128422;23;20476;-80
2023/01/16 06:17:53;;;;;;;10.77;6.15;;;4.00;99.90;;;;;;6153362;23;20014;-80
2023/01/16 06:20:19;;;;;;;12.30;5.72;;;4.00;99.90;;;;;;6150812;23;20017;-78
2023/01/16 06:22:45;;;;;;;11.77;6.05;;;4.00;99.90;;;;;;6149551;23;20080;-79
2023/01/16 06:25:11;;;;;;;13.70;5.72;;;4.00;99.90;;;;;;6148882;23;20017;-78
2023/01/16 06:27:36;;;;;;;14.98;6.55;;;4.00;99.90;;;;;;6149292;23;20080;-78
2023/01/16 06:30:03;;;;;;;12.05;5.57;;;4.00;99.90;;;;;;6124209;23;20013;-78
2023/01/16 06:32:28;;;;;;;11.07;5.43;;;3.90;99.90;;;;;;6152091;23;20342;-79
2023/01/16 06:34:54;;;;;;;12.85;5.30;;;4.00;99.90;;;;;;6122850;23;20028;-79
2023/01/16 06:37:19;;;;;;;11.00;4.90;;;4.00;99.90;;;;;;6126317;23;20013;-79
2023/01/16 06:39:45;;;;;;;6.75;4.68;;;3.90;99.90;;;;;;6149829;23;20049;-79
2023/01/16 06:42:10;;;;;;;11.77;4.70;;;3.90;99.90;;;;;;6149924;23;20069;-79
2023/01/16 06:44:36;;;;;;;11.40;5.28;;;3.90;99.90;;;;;;6150873;23;20057;-79
2023/01/16 06:47:02;;;;;;;9.98;5.30;;;3.90;99.90;;;;;;6126134;23;20014;-79
2023/01/16 06:49:28;;;;;;;9.57;4.60;;;3.80;99.90;;;;;;6149065;23;20013;-79
2023/01/16 06:51:53;;;;;;;9.70;4.22;;;3.80;99.90;;;;;;6150520;23;20044;-79
2023/01/16 06:54:19;;;;;;;12.93;4.78;;;3.80;99.90;;;;;;6153297;23;20013;-79
2023/01/16 06:56:44;;;;;;;6.55;4.60;;;3.70;99.90;;;;;;6150064;23;20021;-79
2023/01/16 06:59:10;;;;;;;8.98;4.68;;;3.80;99.90;;;;;;6126154;23;20342;-79
2023/01/16 07:01:36;;;;;;;13.48;6.13;;;3.70;99.90;;;;;;6151455;23;20389;-79
2023/01/16 07:04:01;;;;;;;10.48;4.55;;;3.70;99.90;;;;;;6150963;23;20060;-79
2023/01/16 07:06:27;;;;;;;10.20;4.60;;;3.70;99.90;;;;;;6150081;23;20009;-79
2023/01/16 07:08:52;;;;;;;10.15;5.05;;;3.60;99.90;;;;;;6150237;23;20017;-79
2023/01/16 07:11:18;;;;;;;8.88;4.47;;;3.70;99.90;;;;;;6150680;23;20013;-79
2023/01/16 07:13:44;;;;;;;11.15;4.43;;;3.60;99.90;;;;;;6149224;23;20527;-80
2023/01/16 07:24:31;;;;;;;13.75;6.03;;;3.70;99.90;;;;;;6149753;23;20028;-79
2023/01/16 07:27:00;;;;;;;7.40;4.03;;;3.60;99.90;;;;;;6151637;23;20010;-79
2023/01/16 07:29:28;;;;;;;9.05;4.38;;;3.60;99.90;;;;;;6124783;23;20382;-79
2023/01/16 07:31:55;;;;;;;8.95;3.80;;;3.60;99.90;;;;;;6151427;23;20010;-78
2023/01/16 07:34:22;;;;;;;9.90;4.20;;;3.60;99.90;;;;;;6149918;23;20107;-79
2023/01/16 07:36:47;;;;;;;8.10;4.50;;;3.60;99.90;;;;;;6150745;23;20036;-79
2023/01/16 07:39:13;;;;;;;7.40;4.18;;;3.60;99.90;;;;;;6150383;23;20014;-79
2023/01/16 07:41:38;;;;;;;8.18;4.47;;;3.60;99.90;;;;;;6150105;23;20451;-79
2023/01/16 07:44:05;;;;;;;9.15;5.03;;;3.60;99.90;;;;;;6150233;23;20028;-79
2023/01/16 07:46:31;;;;;;;9.63;4.88;;;3.60;99.90;;;;;;6147909;23;20013;-79
2023/01/16 07:48:57;;;;;;;9.43;4.32;;;3.60;99.90;;;;;;6124237;23;20005;-79
2023/01/16 07:51:23;;;;;;;12.15;4.65;;;3.60;99.90;;;;;;6149583;23;20060;-78
2023/01/16 07:53:49;;;;;;;10.98;4.85;;;3.60;99.90;;;;;;6148387;23;20108;-79
2023/01/16 07:56:15;;;;;;;13.25;5.20;;;3.70;99.90;;;;;;6123549;23;20499;-79
2023/01/16 07:58:42;;;;;;;7.07;4.45;;;3.60;99.90;;;;;;6148579;23;20017;-78
2023/01/16 08:01:09;;;;;;;9.73;4.45;;;3.60;99.90;;;;;;6148940;23;20511;-79
2023/01/16 08:03:36;;;;;;;8.10;4.32;;;3.60;99.90;;;;;;6128235;23;20881;-78
2023/01/16 08:06:02;;;;;;;6.70;4.03;;;3.70;99.90;;;;;;6135006;23;20021;-78
2023/01/16 08:08:29;;;;;;;9.57;4.28;;;3.70;99.90;;;;;;6122528;23;20061;-78
2023/01/16 08:11:35;;;;;;;11.45;4.57;;;3.70;99.90;;;;;;6120098;23;20009;-79
2023/01/16 08:13:46;;;;;;;8.32;4.25;;;3.70;99.90;;;;;;6144130;23;20022;-79
2023/01/16 08:16:11;;;;;;;13.60;4.38;;;3.80;99.90;;;;;;6145472;23;20351;-79
2023/01/16 08:18:37;;;;;;;9.02;4.10;;;3.80;99.90;;;;;;6121609;23;20072;-79
2023/01/16 08:21:02;;;;;;;10.55;4.53;;;3.80;99.90;;;;;;6146406;23;20508;-78
2023/01/16 08:23:28;;;;;;;8.55;4.32;;;3.80;99.90;;;;;;6119413;23;20101;-79
2023/01/16 08:25:54;;;;;;;8.30;5.13;;;3.80;99.90;;;;;;6145822;23;20013;-79
2023/01/16 08:28:19;;;;;;;9.93;4.65;;;3.90;99.90;;;;;;6147621;23;20009;-79
2023/01/16 08:30:45;;;;;;;8.07;4.78;;;3.90;99.90;;;;;;6146792;23;20403;-79
2023/01/16 08:33:10;;;;;;;10.55;4.80;;;3.90;99.90;;;;;;6148111;23;20534;-78
2023/01/16 08:35:36;;;;;;;10.65;5.38;;;3.90;99.90;;;;;;6146561;23;20021;-79
2023/01/16 08:38:01;;;;;;;12.82;4.97;;;3.90;99.90;;;;;;6123053;23;20439;-79
2023/01/16 08:40:28;;;;;;;11.15;4.35;;;4.00;99.90;;;;;;6122217;23;20009;-78
2023/01/16 08:51:23;;;;;;;7.97;4.07;;;4.00;99.90;;;;;;6148541;23;20032;-78
2023/01/16 08:53:54;;;;;;;5.88;3.55;;;4.00;99.90;;;;;;6147123;23;20080;-82
2023/01/16 08:56:21;;;;;;;7.57;3.53;;;4.00;99.90;;;;;;6149015;23;20014;-80
2023/01/16 08:58:47;;;;;;;7.40;3.50;;;4.00;99.90;;;;;;6148522;23;20316;-81
2023/01/16 09:01:13;;;;;;;8.18;3.50;;;4.00;99.90;;;;;;6148760;23;20024;-80
2023/01/16 09:03:38;;;;;;;5.13;3.13;;;4.10;99.90;;;;;;6146541;23;20017;-80
2023/01/16 09:06:04;;;;;;;7.63;3.00;;;4.00;99.90;;;;;;6122431;23;20108;-80
2023/01/16 09:08:30;;;;;;;7.20;3.15;;;4.10;99.90;;;;;;6148641;23;20009;-80
2023/01/16 09:13:48;;;;;;;7.43;3.33;;;4.10;99.90;;;;;;6148126;23;20032;-81
2023/01/16 09:16:15;;;;;;;7.70;3.22;;;4.10;99.90;;;;;;6146674;23;20080;-80
2023/01/16 09:18:41;;;;;;;8.90;2.80;;;4.10;99.90;;;;;;6124295;23;20144;-81
2023/01/16 09:21:07;;;;;;;8.60;3.15;;;4.10;99.90;;;;;;6147467;23;20064;-80
2023/01/16 09:23:32;;;;;;;6.55;2.38;;;4.10;99.90;;;;;;6123967;23;20028;-80
2023/01/16 09:25:58;;;;;;;4.95;2.50;;;4.10;99.90;;;;;;6123326;23;20016;-81
2023/01/16 09:28:23;;;;;;;8.10;3.03;;;4.10;99.90;;;;;;6124053;23;20820;-81
2023/01/16 09:30:51;;;;;;;6.47;2.67;;;4.10;99.90;;;;;;6122695;23;20419;-80
2023/01/16 09:33:16;;;;;;;5.78;2.50;;;4.20;99.90;;;;;;6149242;23;20021;-81
2023/01/16 09:35:42;;;;;;;6.20;2.58;;;4.20;99.90;;;;;;6148282;23;20012;-80
2023/01/16 09:38:08;;;;;;;5.50;2.67;;;4.10;99.90;;;;;;6148356;23;20021;-81
2023/01/16 09:40:33;;;;;;;5.32;2.45;;;4.20;99.90;;;;;;6123540;23;20024;-81
2023/01/16 09:43:38;;;;;;;4.82;2.50;;;4.10;99.90;;;;;;6150196;23;20100;-80
2023/01/16 09:46:25;;;;;;;4.55;2.10;;;4.20;99.90;;;;;;6147176;23;20025;-81
2023/01/16 09:49:01;;;;;;;6.97;2.47;;;4.10;99.90;;;;;;6123333;23;20053;-81
2023/01/16 09:51:34;;;;;;;5.07;2.30;;;4.20;99.90;;;;;;6148188;23;20116;-81
2023/01/16 09:59:47;;;;;;;4.13;1.83;;;4.20;99.90;;;;;;6146501;23;20398;-79
2023/01/16 10:02:23;;;;;;;2.88;1.33;;;4.20;99.90;;;;;;6146345;23;20017;-79
2023/01/16 10:04:51;;;;;;;5.25;1.77;;;4.20;99.90;;;;;;6146609;23;20059;-79
2023/01/16 10:07:39;;;;;;;3.83;1.70;;;4.30;99.90;;;;;;6146783;23;20029;-80
2023/01/16 10:10:40;;;;;;;4.10;1.48;;;4.20;99.90;;;;;;6146233;23;20017;-79
2023/01/16 10:13:27;;;;;;;7.53;1.25;;;4.30;99.90;;;;;;6123041;23;20017;-79
2023/01/16 10:16:20;;;;;;;2.50;1.30;;;4.30;99.90;;;;;;6145361;23;20060;-79
2023/01/16 10:19:09;;;;;;;5.03;1.35;;;4.30;99.90;;;;;;6121397;23;20052;-79
2023/01/16 10:22:01;;;;;;;5.38;1.73;;;4.30;99.90;;;;;;6147757;23;20458;-79
2023/01/16 10:24:38;;;;;;;6.38;1.38;;;4.30;99.90;;;;;;6146893;23;20028;-79
2023/01/16 10:27:12;;;;;;;4.95;1.02;;;4.30;99.90;;;;;;6136097;23;20410;-80
2023/01/16 10:29:55;;;;;;;4.22;0.88;;;4.20;99.90;;;;;;6146893;23;20019;-80
2023/01/16 10:32:31;;;;;;;3.30;0.80;;;4.20;99.90;;;;;;6121444;23;20016;-79
2023/01/16 10:35:13;;;;;;;2.70;0.50;;;4.20;99.90;;;;;;6146173;23;20041;-80
2023/01/16 10:37:42;;;;;;;1.40;0.55;;;4.10;99.90;;;;;;6146158;23;20092;-80
2023/01/16 10:40:29;;;;;;;1.95;0.60;;;4.10;99.90;;;;;;6145729;23;20073;-79
2023/01/16 10:51:16;;;;;;;1.95;0.60;;;4.10;99.90;;;;;;6147378;23;20033;-79
2023/01/16 10:53:43;;;;;;;3.40;0.63;;;4.10;99.90;;;;;;6119133;23;20017;-80
2023/01/16 10:56:09;;;;;;;3.05;0.77;;;4.00;99.90;;;;;;6120057;23;20017;-80
2023/01/16 10:58:38;;;;;;;1.77;0.60;;;4.00;99.90;;;;;;6122869;23;20021;-79
2023/01/16 11:01:11;;;;;;;3.38;0.88;;;4.00;99.90;;;;;;6121253;23;20049;-79
2023/01/16 11:03:40;;;;;;;3.13;0.65;;;4.00;99.90;;;;;;6122098;23;20069;-80
2023/01/16 11:06:22;;;;;;;2.85;0.63;;;4.00;99.90;;;;;;6145354;23;20021;-80
2023/01/16 11:08:54;;;;;;;4.47;0.70;;;4.00;99.90;;;;;;6145854;23;20489;-79
2023/01/16 11:20:28;;;;;;;2.35;0.80;;;4.00;99.90;;;;;;6146624;23;20022;-80
2023/01/16 11:23:23;;;;;;;4.63;1.20;;;4.00;99.90;;;;;;6122215;23;20107;-80
2023/01/16 11:25:52;;;;;;;3.83;1.00;;;3.90;99.90;;;;;;6142925;23;20017;-79
2023/01/16 11:28:25;;;;;;;1.30;0.82;;;4.00;99.90;;;;;;6124386;23;20749;-79
2023/01/16 11:30:57;;;;;;;3.38;1.00;;;4.00;99.90;;;;;;6122631;23;20345;-79
2023/01/16 11:33:27;;;;;;;2.05;0.93;;;3.90;99.90;;;;;;6147976;23;20010;-79
2023/01/16 11:35:56;;;;;;;5.18;1.05;;;4.00;99.90;;;;;;6147239;23;20477;-79
2023/01/16 11:38:23;;;;;;;1.92;1.00;;;4.00;99.90;;;;;;6148242;23;20009;-79
2023/01/16 11:40:50;;;;;;;2.60;0.90;;;4.00;99.90;;;;;;6147671;23;20528;-79
2023/01/16 11:46:26;;;;;;;6.25;1.85;;;4.00;99.90;;;;;;6145496;23;20022;-79
2023/01/16 11:48:53;;;;;;;;;;;4.10;99.90;;;;;;6122830;23;20053;-79
2023/01/16 11:51:23;;;;;;;2.22;0.82;;;4.00;99.90;;;;;;6147335;23;19952;-79
2023/01/16 11:53:51;;;;;;;2.67;0.82;;;4.10;99.90;;;;;;6146638;23;20009;-79
2023/01/16 11:56:39;;;;;;;2.42;0.98;;;4.10;99.90;;;;;;6147203;23;20013;-80
2023/01/16 11:59:26;;;;;;;2.88;0.90;;;4.10;99.90;;;;;;6146682;23;20454;-80
2023/01/16 12:02:18;;;;;;;2.75;0.80;;;4.10;99.90;;;;;;6147999;23;20017;-79
2023/01/16 12:08:11;;;;;;;4.40;1.08;;;4.10;99.90;;;;;;6149123;23;20021;-79
2023/01/16 12:10:57;;;;;;;2.08;0.75;;;4.10;99.90;;;;;;6149652;23;20036;-79
2023/01/16 12:16:52;;;;;;;3.85;1.13;;;4.20;99.90;;;;;;6147719;23;20014;-79
2023/01/16 12:19:43;;;;;;;;;;;4.20;99.90;;;;;;6148737;23;20017;-80
2023/01/16 12:22:15;;;;;;;2.78;1.15;;;4.30;99.90;;;;;;6149340;23;19920;-80
2023/01/16 12:24:56;;;;;;;3.45;1.05;;;4.30;99.90;;;;;;6149233;23;20025;-79
2023/01/16 12:27:43;;;;;;;5.15;1.35;;;4.30;99.90;;;;;;6124311;23;20017;-79
2023/01/16 12:30:29;;;;;;;2.38;0.90;;;4.30;99.90;;;;;;6147622;23;20131;-80
2023/01/16 12:33:26;;;;;;;4.70;1.42;;;4.40;99.90;;;;;;6148605;23;20013;-77
2023/01/16 12:36:11;;;;;;;2.88;1.13;;;4.40;99.90;;;;;;6147488;23;20100;-78
2023/01/16 12:38:44;;;;;;;3.33;1.35;;;4.50;99.90;;;;;;6125336;23;20018;-79
2023/01/16 12:44:49;;;;;;;2.05;0.90;;;4.50;99.90;;;;;;6149024;23;20036;-80
2023/01/16 12:47:24;;;;;;;;;;;4.50;99.90;;;;;;6007945;23;20012;-80
2023/01/16 12:49:52;;;;;;;2.75;0.80;;;4.50;99.90;;;;;;6126867;23;19912;-80
2023/01/16 12:52:27;;;;;;;1.38;0.63;;;4.50;99.90;;;;;;6148707;23;20014;-80
2023/01/16 12:55:18;;;;;;;2.60;0.90;;;4.60;99.90;;;;;;6145579;23;20396;-79
2023/01/16 12:58:18;;;;;;;2.67;0.85;;;4.50;99.90;;;;;;6148872;23;20022;-79
2023/01/16 13:01:17;;;;;;;2.65;1.08;;;4.60;99.90;;;;;;6068637;23;20017;-78
2023/01/16 13:03:45;;;;;;;4.03;0.80;;;4.60;99.90;;;;;;6123638;23;20028;-79
2023/01/16 13:06:16;;;;;;;1.98;0.70;;;4.60;99.90;;;;;;6147613;23;20096;-78
2023/01/16 13:08:59;;;;;;;5.85;0.88;;;4.60;99.90;;;;;;6123704;23;20013;-79
2023/01/16 13:14:20;;;;;;;3.03;1.17;;;4.70;99.90;;;;;;6148825;23;20691;-79
2023/01/16 13:16:59;;;;;;;2.85;0.80;;;4.70;99.90;;;;;;6147545;23;20028;-79
2023/01/16 13:19:28;;;;;;;3.95;1.00;;;4.70;99.90;;;;;;6147208;23;20085;-79
2023/01/16 13:21:55;;;;;;;2.25;1.10;;;4.70;99.90;;;;;;6147216;23;20411;-79
2023/01/16 13:24:34;;;;;;;2.42;0.85;;;4.80;99.90;;;;;;6145219;23;20026;-81
2023/01/16 13:27:03;;;;;;;2.72;1.10;;;4.80;99.90;;;;;;6124891;23;20446;-81
2023/01/16 13:29:41;;;;;;;1.63;1.00;;;4.80;99.90;;;;;;6148851;23;20009;-81
2023/01/16 13:32:25;;;;;;;3.47;0.80;;;4.80;99.90;;;;;;6149465;23;20017;-79
2023/01/16 13:35:28;;;;;;;3.97;1.15;;;4.90;99.90;;;;;;6124879;23;20036;-82
2023/01/16 13:38:23;;;;;;;6.80;0.98;;;4.90;99.90;;;;;;6148482;23;20060;-81
2023/01/16 13:41:21;;;;;;;2.00;0.85;;;4.90;99.90;;;;;;6147826;23;20013;-81
2023/01/16 13:46:38;;;;;;;1.25;0.80;;;4.90;99.90;;;;;;6148242;23;20792;-81
2023/01/16 13:49:05;;;;;;;1.48;0.90;;;5.00;99.90;;;;;;6147958;23;20009;-81
2023/01/16 13:51:39;;;;;;;2.13;0.77;;;5.00;99.90;;;;;;6148435;23;20390;-82
2023/01/16 13:54:18;;;;;;;2.45;0.80;;;5.00;99.90;;;;;;6124064;23;20029;-82
2023/01/16 13:57:21;;;;;;;1.92;0.80;;;5.00;99.90;;;;;;6124820;23;20032;-81
2023/01/16 13:59:49;;;;;;;2.63;0.60;;;5.00;99.90;;;;;;6143325;23;21026;-84
2023/01/16 14:02:26;;;;;;;1.85;0.90;;;5.00;99.90;;;;;;6153776;23;20018;-83
2023/01/16 14:05:07;;;;;;;3.85;0.82;;;5.00;99.90;;;;;;6126003;23;20021;-82
2023/01/16 14:10:58;;;;;;;1.90;0.65;;;5.00;99.90;;;;;;6150416;23;20027;-81
2023/01/16 14:13:31;;;;;;;2.60;0.77;;;5.00;99.90;;;;;;6073607;23;20011;-81
2023/01/16 14:16:30;;;;;;;2.38;0.63;;;5.10;99.90;;;;;;6149439;23;20390;-81
2023/01/16 14:18:55;;;;;;;1.90;0.40;;;5.00;99.90;;;;;;6151125;23;20014;-81
2023/01/16 14:21:24;;;;;;;6.03;0.60;;;5.10;99.90;;;;;;6149410;23;20625;-81
2023/01/16 14:24:00;;;;;;;2.63;0.70;;;5.10;99.90;;;;;;6124568;23;20014;-82
2023/01/16 14:26:51;;;;;;;1.63;0.40;;;5.10;99.90;;;;;;6122353;23;20016;-81